createdAt,value
2018-04-26T00:00:37.792Z,9.6
2018-04-26T00:01:36.600Z,9.7
2018-04-26T00:02:35.815Z,9.7
2018-04-26T00:03:35.035Z,9.7
2018-04-26T00:04:34.356Z,9.7
2018-04-26T00:05:33.062Z,9.7
2018-04-26T00:06:32.163Z,9.7
2018-04-26T00:07:31.269Z,9.7
2018-04-26T00:08:31.093Z,9.6
2018-04-26T00:09:29.906Z,9.6
2018-04-26T00:11:28.617Z,9.6
2018-04-26T00:12:27.445Z,9.5
2018-04-26T00:13:26.775Z,9.5
2018-04-26T00:14:26.061Z,9.5
2018-04-26T00:15:24.981Z,9.5
2018-04-26T00:16:24.315Z,9.5
2018-04-26T00:17:23.520Z,9.5
2018-04-26T00:18:22.337Z,9.6
2018-04-26T00:19:21.546Z,9.6
2018-04-26T00:20:20.861Z,9.6
2018-04-26T00:20:51.495Z,9.6
2018-04-26T00:22:19.100Z,9.7
2018-04-26T00:23:18.487Z,9.7
2018-04-26T00:24:17.408Z,9.7
2018-04-26T00:25:16.406Z,9.7
2018-04-26T00:26:15.522Z,9.7
2018-04-26T00:27:14.946Z,9.7
2018-04-26T00:28:14.149Z,9.7
2018-04-26T00:30:12.346Z,9.7
2018-04-26T00:31:11.786Z,9.7
2018-04-26T00:32:10.576Z,9.7
2018-04-26T00:33:10.020Z,9.7
2018-04-26T00:34:08.847Z,9.8
2018-04-26T00:35:08.170Z,9.8
2018-04-26T00:36:07.586Z,9.8
2018-04-26T00:37:06.392Z,9.8
2018-04-26T00:38:05.499Z,9.8
2018-04-26T00:39:04.602Z,9.8
2018-04-26T00:40:03.709Z,9.8
2018-04-26T00:41:02.598Z,9.8
2018-04-26T00:42:02.218Z,9.8
2018-04-26T00:43:01.541Z,9.8
2018-04-26T00:44:00.659Z,9.9
2018-04-26T00:44:59.975Z,9.9
2018-04-26T00:45:59.069Z,9.8
2018-04-26T00:46:57.958Z,9.8
2018-04-26T00:47:57.548Z,9.8
2018-04-26T00:48:56.682Z,9.8
2018-04-26T00:49:55.388Z,9.8
2018-04-26T00:50:54.593Z,9.8
2018-04-26T00:51:53.910Z,9.8
2018-04-26T00:52:53.234Z,9.8
2018-04-26T00:53:52.223Z,9.8
2018-04-26T00:55:50.430Z,9.8
2018-04-26T00:56:49.864Z,9.8
2018-04-26T00:57:48.670Z,9.7
2018-04-26T00:58:47.987Z,9.7
2018-04-26T00:59:46.973Z,9.7
2018-04-26T01:00:46.391Z,9.7
2018-04-26T01:01:16.515Z,9.7
2018-04-26T01:01:47.213Z,9.7
2018-04-26T01:02:17.249Z,9.7
2018-04-26T01:03:43.758Z,9.7
2018-04-26T01:04:42.995Z,9.6
2018-04-26T01:05:42.508Z,9.6
2018-04-26T01:06:41.326Z,9.6
2018-04-26T01:07:40.535Z,9.6
2018-04-26T01:08:39.739Z,9.6
2018-04-26T01:09:38.656Z,9.6
2018-04-26T01:10:38.087Z,9.6
2018-04-26T01:11:37.011Z,9.6
2018-04-26T01:12:36.441Z,9.6
2018-04-26T01:13:35.370Z,9.6
2018-04-26T01:14:34.687Z,9.6
2018-04-26T01:15:33.496Z,9.6
2018-04-26T01:16:32.598Z,9.6
2018-04-26T01:17:31.807Z,9.6
2018-04-26T01:18:30.908Z,9.6
2018-04-26T01:19:30.228Z,9.6
2018-04-26T01:20:29.441Z,9.6
2018-04-26T01:21:28.539Z,9.6
2018-04-26T01:22:27.968Z,9.6
2018-04-26T01:23:26.892Z,9.6
2018-04-26T01:24:25.904Z,9.6
2018-04-26T01:25:25.108Z,9.5
2018-04-26T01:26:24.426Z,9.5
2018-04-26T01:27:23.641Z,9.5
2018-04-26T01:28:22.861Z,9.5
2018-04-26T01:29:21.801Z,9.5
2018-04-26T01:30:20.898Z,9.5
2018-04-26T01:31:20.103Z,9.5
2018-04-26T01:32:19.418Z,9.5
2018-04-26T01:33:18.633Z,9.4
2018-04-26T01:34:17.458Z,9.4
2018-04-26T01:35:16.843Z,9.4
2018-04-26T01:36:15.944Z,9.4
2018-04-26T01:37:15.260Z,9.4
2018-04-26T01:38:13.967Z,9.4
2018-04-26T01:39:13.285Z,9.4
2018-04-26T01:40:12.492Z,9.4
2018-04-26T01:41:11.699Z,9.4
2018-04-26T01:41:42.008Z,9.4
2018-04-26T01:42:12.767Z,9.4
2018-04-26T01:43:10.081Z,9.4
2018-04-26T01:43:40.713Z,9.4
2018-04-26T01:45:08.505Z,9.4
2018-04-26T01:46:07.213Z,9.3
2018-04-26T01:47:06.926Z,9.4
2018-04-26T01:48:05.749Z,9.3
2018-04-26T01:49:05.170Z,9.3
2018-04-26T01:50:04.380Z,9.3
2018-04-26T01:51:03.194Z,9.4
2018-04-26T01:52:02.421Z,9.3
2018-04-26T01:53:01.856Z,9.3
2018-04-26T01:54:00.575Z,9.3
2018-04-26T01:54:59.997Z,9.3
2018-04-26T01:55:59.316Z,9.3
2018-04-26T01:56:58.138Z,9.3
2018-04-26T01:57:57.355Z,9.3
2018-04-26T01:58:56.670Z,9.3
2018-04-26T01:59:55.483Z,9.3
2018-04-26T02:00:54.696Z,9.3
2018-04-26T02:01:53.912Z,9.3
2018-04-26T02:02:53.008Z,9.3
2018-04-26T02:03:52.319Z,9.3
2018-04-26T02:05:50.302Z,9.3
2018-04-26T02:06:49.627Z,9.3
2018-04-26T02:07:48.848Z,9.3
2018-04-26T02:08:48.274Z,9.3
2018-04-26T02:09:47.202Z,9.3
2018-04-26T02:10:46.312Z,9.3
2018-04-26T02:11:45.746Z,9.3
2018-04-26T02:12:44.549Z,9.3
2018-04-26T02:13:43.662Z,9.3
2018-04-26T02:14:42.984Z,9.2
2018-04-26T02:15:42.295Z,9.2
2018-04-26T02:16:41.114Z,9.3
2018-04-26T02:17:40.555Z,9.3
2018-04-26T02:18:39.992Z,9.3
2018-04-26T02:19:38.527Z,9.3
2018-04-26T02:20:37.850Z,9.3
2018-04-26T02:21:37.274Z,9.3
2018-04-26T02:22:37.428Z,9.3
2018-04-26T02:23:35.345Z,9.3
2018-04-26T02:24:34.790Z,9.3
2018-04-26T02:25:33.605Z,9.3
2018-04-26T02:26:32.930Z,9.3
2018-04-26T02:27:32.035Z,9.3
2018-04-26T02:29:30.238Z,9.3
2018-04-26T02:30:29.345Z,9.3
2018-04-26T02:31:28.777Z,9.3
2018-04-26T02:32:27.389Z,9.3
2018-04-26T02:33:26.935Z,9.3
2018-04-26T02:34:26.169Z,9.3
2018-04-26T02:35:25.516Z,9.3
2018-04-26T02:36:24.230Z,9.3
2018-04-26T02:37:23.666Z,9.3
2018-04-26T02:38:22.592Z,9.3
2018-04-26T02:39:21.703Z,9.3
2018-04-26T02:40:21.022Z,9.3
2018-04-26T02:41:20.348Z,9.3
2018-04-26T02:42:19.174Z,9.3
2018-04-26T02:43:18.620Z,9.3
2018-04-26T02:44:17.546Z,9.3
2018-04-26T02:45:16.983Z,9.3
2018-04-26T02:47:15.183Z,9.3
2018-04-26T02:48:14.113Z,9.3
2018-04-26T02:49:13.248Z,9.3
2018-04-26T02:51:11.780Z,9.3
2018-04-26T02:52:10.706Z,9.3
2018-04-26T02:53:10.039Z,9.3
2018-04-26T02:54:09.167Z,9.3
2018-04-26T02:55:08.386Z,9.3
2018-04-26T02:56:07.598Z,9.3
2018-04-26T02:57:06.213Z,9.3
2018-04-26T02:58:05.434Z,9.3
2018-04-26T02:59:04.663Z,9.3
2018-04-26T03:00:03.901Z,9.3
2018-04-26T03:02:02.050Z,9.3
2018-04-26T03:03:01.049Z,9.3
2018-04-26T03:04:00.389Z,9.3
2018-04-26T03:04:59.503Z,9.3
2018-04-26T03:05:58.831Z,9.3
2018-04-26T03:06:58.049Z,9.3
2018-04-26T03:07:57.385Z,9.3
2018-04-26T03:08:56.212Z,9.3
2018-04-26T03:09:55.448Z,9.2
2018-04-26T03:10:54.894Z,9.2
2018-04-26T03:11:53.176Z,9.2
2018-04-26T03:12:53.094Z,9.2
2018-04-26T03:13:51.916Z,9.2
2018-04-26T03:15:50.022Z,9.2
2018-04-26T03:16:49.347Z,9.2
2018-04-26T03:17:48.781Z,9.2
2018-04-26T03:18:47.380Z,9.2
2018-04-26T03:19:47.208Z,9.2
2018-04-26T03:20:45.932Z,9.2
2018-04-26T03:21:45.151Z,9.2
2018-04-26T03:22:44.373Z,9.1
2018-04-26T03:23:43.591Z,9.1
2018-04-26T03:24:42.701Z,9.1
2018-04-26T03:25:42.027Z,9.1
2018-04-26T03:26:40.633Z,9.1
2018-04-26T03:27:39.849Z,9.1
2018-04-26T03:28:39.199Z,9.1
2018-04-26T03:29:38.432Z,9.1
2018-04-26T03:30:37.772Z,9.1
2018-04-26T03:31:36.512Z,9.1
2018-04-26T03:32:35.719Z,9.1
2018-04-26T03:33:35.042Z,9.1
2018-04-26T03:34:34.153Z,9.1
2018-04-26T03:35:33.472Z,9.1
2018-04-26T03:36:32.686Z,9.1
2018-04-26T03:37:31.296Z,9
2018-04-26T03:38:30.512Z,9
2018-04-26T03:39:29.931Z,9
2018-04-26T03:41:28.142Z,9
2018-04-26T03:42:27.464Z,9
2018-04-26T03:43:26.463Z,8.9
2018-04-26T03:44:25.475Z,8.9
2018-04-26T03:45:24.797Z,8.9
2018-04-26T03:46:24.015Z,8.8
2018-04-26T03:47:23.120Z,8.8
2018-04-26T03:48:21.834Z,8.8
2018-04-26T03:49:21.158Z,8.8
2018-04-26T03:50:20.368Z,8.8
2018-04-26T03:51:20.029Z,8.8
2018-04-26T03:52:18.750Z,8.8
2018-04-26T03:53:18.189Z,8.8
2018-04-26T03:54:16.907Z,8.8
2018-04-26T03:55:16.230Z,8.8
2018-04-26T03:56:15.555Z,8.8
2018-04-26T03:57:14.372Z,8.8
2018-04-26T03:58:13.799Z,8.8
2018-04-26T03:59:12.397Z,8.8
2018-04-26T04:00:11.611Z,8.8
2018-04-26T04:01:10.848Z,8.8
2018-04-26T04:02:09.939Z,8.8
2018-04-26T04:03:09.374Z,8.8
2018-04-26T04:04:08.810Z,8.9
2018-04-26T04:05:07.638Z,8.9
2018-04-26T04:06:06.954Z,8.9
2018-04-26T04:07:05.661Z,8.9
2018-04-26T04:08:04.768Z,9
2018-04-26T04:09:04.095Z,9
2018-04-26T04:10:03.332Z,9
2018-04-26T04:11:02.663Z,9
2018-04-26T04:12:01.264Z,9
2018-04-26T04:13:01.000Z,9.1
2018-04-26T04:13:59.602Z,9.1
2018-04-26T04:14:58.922Z,9.1
2018-04-26T04:15:29.553Z,9.1
2018-04-26T04:16:57.467Z,9.2
2018-04-26T04:17:56.787Z,9.2
2018-04-26T04:18:55.636Z,9.2
2018-04-26T04:19:54.977Z,9.2
2018-04-26T04:20:53.801Z,9.2
2018-04-26T04:22:52.001Z,9.2
2018-04-26T04:23:51.431Z,9.3
2018-04-26T04:24:50.364Z,9.3
2018-04-26T04:25:20.511Z,9.3
2018-04-26T04:25:51.273Z,9.2
2018-04-26T04:26:21.405Z,9.2
2018-04-26T04:27:47.683Z,9.2
2018-04-26T04:28:47.011Z,9.2
2018-04-26T04:29:46.226Z,9.2
2018-04-26T04:30:45.553Z,9.2
2018-04-26T04:31:44.372Z,9.2
2018-04-26T04:32:43.589Z,9.2
2018-04-26T04:33:43.072Z,9.2
2018-04-26T04:34:41.880Z,9.2
2018-04-26T04:35:41.198Z,9.2
2018-04-26T04:36:40.410Z,9.2
2018-04-26T04:37:39.014Z,9.3
2018-04-26T04:38:38.221Z,9.3
2018-04-26T04:39:37.343Z,9.3
2018-04-26T04:40:36.666Z,9.3
2018-04-26T04:41:35.883Z,9.3
2018-04-26T04:42:35.091Z,9.3
2018-04-26T04:43:34.400Z,9.3
2018-04-26T04:44:33.224Z,9.4
2018-04-26T04:45:32.543Z,9.4
2018-04-26T04:46:31.978Z,9.4
2018-04-26T04:47:30.904Z,9.4
2018-04-26T04:48:30.008Z,9.4
2018-04-26T04:49:29.328Z,9.4
2018-04-26T04:50:28.049Z,9.4
2018-04-26T04:51:27.051Z,9.4
2018-04-26T04:52:26.367Z,9.4
2018-04-26T04:53:25.690Z,9.4
2018-04-26T04:54:25.118Z,9.4
2018-04-26T04:56:23.340Z,9.4
2018-04-26T04:56:53.977Z,9.4
2018-04-26T04:57:24.727Z,9.4
2018-04-26T04:57:55.149Z,9.4
2018-04-26T04:59:20.418Z,9.4
2018-04-26T05:00:19.847Z,9.5
2018-04-26T05:01:18.668Z,9.5
2018-04-26T05:02:17.891Z,9.5
2018-04-26T05:03:17.612Z,9.5
2018-04-26T05:04:16.323Z,9.5
2018-04-26T05:05:15.536Z,9.5
2018-04-26T05:06:14.354Z,9.5
2018-04-26T05:06:44.767Z,9.5
2018-04-26T05:07:15.832Z,9.5
2018-04-26T05:07:46.066Z,9.5
2018-04-26T05:08:16.101Z,9.5
2018-04-26T05:08:46.540Z,9.5
2018-04-26T05:10:10.916Z,9.4
2018-04-26T05:11:10.131Z,9.5
2018-04-26T05:12:09.345Z,9.4
2018-04-26T05:13:08.461Z,9.4
2018-04-26T05:14:07.887Z,9.4
2018-04-26T05:15:06.708Z,9.5
2018-04-26T05:17:05.211Z,9.5
2018-04-26T05:18:04.536Z,9.5
2018-04-26T05:19:03.148Z,9.6
2018-04-26T05:20:02.359Z,9.7
2018-04-26T05:21:01.577Z,9.7
2018-04-26T05:22:00.791Z,9.7
2018-04-26T05:23:00.113Z,9.7
2018-04-26T05:23:59.333Z,9.7
2018-04-26T05:24:58.562Z,9.7
2018-04-26T05:25:57.489Z,9.8
2018-04-26T05:26:56.817Z,9.8
2018-04-26T05:27:55.641Z,9.8
2018-04-26T05:28:55.077Z,9.8
2018-04-26T05:29:54.758Z,9.9
2018-04-26T05:30:53.184Z,9.9
2018-04-26T05:31:52.619Z,9.9
2018-04-26T05:32:51.548Z,9.9
2018-04-26T05:33:50.869Z,9.9
2018-04-26T05:34:49.694Z,10
2018-04-26T05:35:49.022Z,10
2018-04-26T05:36:48.454Z,10
2018-04-26T05:37:47.375Z,10
2018-04-26T05:38:46.197Z,10
2018-04-26T05:39:45.527Z,10
2018-04-26T05:40:44.737Z,10
2018-04-26T05:41:44.069Z,10
2018-04-26T05:42:43.371Z,9.9
2018-04-26T05:43:42.300Z,9.9
2018-04-26T05:44:41.228Z,9.9
2018-04-26T05:45:40.645Z,10
2018-04-26T05:46:39.572Z,10
2018-04-26T05:47:38.895Z,10
2018-04-26T05:48:09.424Z,10
2018-04-26T05:48:40.077Z,10
2018-04-26T05:49:36.771Z,10
2018-04-26T05:50:36.388Z,10
2018-04-26T05:51:35.210Z,10
2018-04-26T05:52:34.552Z,10
2018-04-26T05:53:33.442Z,10
2018-04-26T05:54:32.758Z,10
2018-04-26T05:55:31.975Z,10
2018-04-26T05:56:31.414Z,10
2018-04-26T05:57:30.333Z,10
2018-04-26T05:58:29.659Z,10
2018-04-26T05:59:28.385Z,10
2018-04-26T06:00:27.601Z,10
2018-04-26T06:01:26.817Z,10
2018-04-26T06:02:26.135Z,10
2018-04-26T06:02:56.445Z,10
2018-04-26T06:04:24.455Z,10.1
2018-04-26T06:06:22.455Z,10.1
2018-04-26T06:07:21.563Z,10.1
2018-04-26T06:08:20.990Z,10.1
2018-04-26T06:09:20.324Z,10.1
2018-04-26T06:10:19.262Z,10.1
2018-04-26T06:11:19.175Z,10.1
2018-04-26T06:12:17.503Z,10.1
2018-04-26T06:13:16.940Z,10.1
2018-04-26T06:14:15.869Z,10.1
2018-04-26T06:15:15.094Z,10.1
2018-04-26T06:16:14.408Z,10.1
2018-04-26T06:17:13.779Z,10.1
2018-04-26T06:18:12.799Z,10.1
2018-04-26T06:19:11.401Z,10.1
2018-04-26T06:20:10.509Z,10.1
2018-04-26T06:21:10.015Z,10
2018-04-26T06:22:09.116Z,10.1
2018-04-26T06:23:08.559Z,10.1
2018-04-26T06:24:07.386Z,10.1
2018-04-26T06:25:07.117Z,10.1
2018-04-26T06:26:05.324Z,10.2
2018-04-26T06:28:04.040Z,10.2
2018-04-26T06:29:03.471Z,10.2
2018-04-26T06:30:02.307Z,10.2
2018-04-26T06:31:01.489Z,10.2
2018-04-26T06:32:00.829Z,10.3
2018-04-26T06:32:31.437Z,10.3
2018-04-26T06:33:01.681Z,10.3
2018-04-26T06:33:31.919Z,10.3
2018-04-26T06:34:02.467Z,10.3
2018-04-26T06:34:58.273Z,10.3
2018-04-26T06:35:57.202Z,10.3
2018-04-26T06:36:56.972Z,10.3
2018-04-26T06:37:55.379Z,10.3
2018-04-26T06:38:54.910Z,10.3
2018-04-26T06:39:53.831Z,10.3
2018-04-26T06:40:53.263Z,10.4
2018-04-26T06:41:52.191Z,10.4
2018-04-26T06:42:23.012Z,10.4
2018-04-26T06:42:52.872Z,10.4
2018-04-26T06:43:22.904Z,10.4
2018-04-26T06:43:53.558Z,10.4
2018-04-26T06:44:24.206Z,10.4
2018-04-26T06:45:49.206Z,10.4
2018-04-26T06:46:48.019Z,10.5
2018-04-26T06:47:47.798Z,10.5
2018-04-26T06:48:46.235Z,10.5
2018-04-26T06:49:45.672Z,10.5
2018-04-26T06:50:44.483Z,10.6
2018-04-26T06:51:43.913Z,10.5
2018-04-26T06:52:42.414Z,10.5
2018-04-26T06:53:42.233Z,10.5
2018-04-26T06:54:41.339Z,10.5
2018-04-26T06:55:40.061Z,10.5
2018-04-26T06:56:39.674Z,10.6
2018-04-26T06:57:38.280Z,10.5
2018-04-26T06:58:38.157Z,10.5
2018-04-26T06:59:37.098Z,10.5
2018-04-26T07:00:36.703Z,10.5
2018-04-26T07:01:35.646Z,10.6
2018-04-26T07:02:34.255Z,10.6
2018-04-26T07:03:33.463Z,10.6
2018-04-26T07:04:32.572Z,10.6
2018-04-26T07:05:32.003Z,10.6
2018-04-26T07:06:31.321Z,10.6
2018-04-26T07:07:30.036Z,10.7
2018-04-26T07:08:29.458Z,10.7
2018-04-26T07:09:28.685Z,10.7
2018-04-26T07:10:28.057Z,10.7
2018-04-26T07:11:26.871Z,10.7
2018-04-26T07:12:26.197Z,10.7
2018-04-26T07:13:25.200Z,10.7
2018-04-26T07:14:24.417Z,10.7
2018-04-26T07:15:23.640Z,10.7
2018-04-26T07:16:23.066Z,10.8
2018-04-26T07:17:21.883Z,10.8
2018-04-26T07:18:21.325Z,10.8
2018-04-26T07:19:20.142Z,10.7
2018-04-26T07:20:19.574Z,10.7
2018-04-26T07:21:18.388Z,10.7
2018-04-26T07:22:17.817Z,10.7
2018-04-26T07:22:48.418Z,10.7
2018-04-26T07:23:18.546Z,10.7
2018-04-26T07:23:49.179Z,10.7
2018-04-26T07:24:19.819Z,10.8
2018-04-26T07:24:50.579Z,10.8
2018-04-26T07:25:20.716Z,10.8
2018-04-26T07:25:51.248Z,10.8
2018-04-26T07:27:13.729Z,10.9
2018-04-26T07:28:12.440Z,10.9
2018-04-26T07:29:11.871Z,10.8
2018-04-26T07:30:11.312Z,10.8
2018-04-26T07:31:10.243Z,10.8
2018-04-26T07:32:09.456Z,10.8
2018-04-26T07:33:08.391Z,10.8
2018-04-26T07:34:07.714Z,10.8
2018-04-26T07:34:38.365Z,10.8
2018-04-26T07:35:08.895Z,10.9
2018-04-26T07:35:39.210Z,10.9
2018-04-26T07:36:09.959Z,11
2018-04-26T07:36:39.982Z,11
2018-04-26T07:38:04.583Z,11.1
2018-04-26T07:39:03.427Z,11.1
2018-04-26T07:40:02.630Z,11.1
2018-04-26T07:41:01.765Z,11.2
2018-04-26T07:42:01.280Z,11.3
2018-04-26T07:42:59.994Z,11.2
2018-04-26T07:43:59.318Z,11.2
2018-04-26T07:44:58.545Z,11.2
2018-04-26T07:45:57.660Z,11.3
2018-04-26T07:46:56.987Z,11.3
2018-04-26T07:47:56.311Z,11.3
2018-04-26T07:48:55.046Z,11.4
2018-04-26T07:49:54.479Z,11.4
2018-04-26T07:50:53.186Z,11.3
2018-04-26T07:51:52.618Z,11.3
2018-04-26T07:52:51.942Z,11.4
2018-04-26T07:53:51.256Z,11.5
2018-04-26T07:54:50.075Z,11.5
2018-04-26T07:55:49.408Z,11.5
2018-04-26T07:56:48.748Z,11.5
2018-04-26T07:57:48.083Z,11.5
2018-04-26T07:58:46.807Z,11.4
2018-04-26T07:59:46.253Z,11.4
2018-04-26T08:00:45.374Z,11.3
2018-04-26T08:01:45.115Z,11.3
2018-04-26T08:02:43.641Z,11.3
2018-04-26T08:03:42.970Z,11.3
2018-04-26T08:04:42.066Z,11.3
2018-04-26T08:05:12.716Z,11.3
2018-04-26T08:05:43.330Z,11.2
2018-04-26T08:06:40.259Z,11.2
2018-04-26T08:07:39.591Z,11.2
2018-04-26T08:08:38.917Z,11.2
2018-04-26T08:09:37.519Z,11.1
2018-04-26T08:10:36.846Z,11.1
2018-04-26T08:11:36.411Z,11
2018-04-26T08:12:35.237Z,11
2018-04-26T08:13:34.676Z,11
2018-04-26T08:14:34.006Z,11
2018-04-26T08:15:32.721Z,11
2018-04-26T08:16:32.155Z,11
2018-04-26T08:17:31.481Z,11
2018-04-26T08:18:30.300Z,11
2018-04-26T08:19:29.412Z,11
2018-04-26T08:20:28.633Z,11
2018-04-26T08:21:27.842Z,11
2018-04-26T08:22:27.182Z,11
2018-04-26T08:23:26.400Z,11
2018-04-26T08:25:24.614Z,11.1
2018-04-26T08:26:23.952Z,11.1
2018-04-26T08:27:23.058Z,11.1
2018-04-26T08:28:22.285Z,11.2
2018-04-26T08:29:21.604Z,11.2
2018-04-26T08:30:20.436Z,11.3
2018-04-26T08:31:19.649Z,11.3
2018-04-26T08:32:19.046Z,11.4
2018-04-26T08:34:17.268Z,11.5
2018-04-26T08:36:15.484Z,11.6
2018-04-26T08:37:14.704Z,11.5
2018-04-26T08:38:13.813Z,11.4
2018-04-26T08:39:13.138Z,11.4
2018-04-26T08:40:12.356Z,11.3
2018-04-26T08:41:11.791Z,11.3
2018-04-26T08:42:10.619Z,11.3
2018-04-26T08:43:09.843Z,11.3
2018-04-26T08:44:09.175Z,11.4
2018-04-26T08:45:08.284Z,11.4
2018-04-26T08:46:07.612Z,11.5
2018-04-26T08:47:06.429Z,11.6
2018-04-26T08:48:05.761Z,11.8
2018-04-26T08:49:04.996Z,11.9
2018-04-26T08:49:35.533Z,11.9
2018-04-26T08:50:06.060Z,12
2018-04-26T08:51:03.272Z,11.9
2018-04-26T08:52:02.494Z,12
2018-04-26T08:53:01.937Z,12
2018-04-26T08:54:01.171Z,11.9
2018-04-26T08:54:59.997Z,11.8
2018-04-26T08:55:59.429Z,11.8
2018-04-26T08:56:58.326Z,11.7
2018-04-26T08:57:57.772Z,11.8
2018-04-26T08:58:57.097Z,11.9
2018-04-26T08:59:27.623Z,11.9
2018-04-26T09:00:55.138Z,11.9
2018-04-26T09:01:54.468Z,11.8
2018-04-26T09:02:53.690Z,11.8
2018-04-26T09:03:53.122Z,11.7
2018-04-26T09:04:51.847Z,11.8
2018-04-26T09:05:51.061Z,11.7
2018-04-26T09:06:50.678Z,11.6
2018-04-26T09:07:49.515Z,11.7
2018-04-26T09:08:48.840Z,11.7
2018-04-26T09:09:47.552Z,11.7
2018-04-26T09:10:18.092Z,11.7
2018-04-26T09:10:48.622Z,11.7
2018-04-26T09:11:19.260Z,11.7
2018-04-26T09:12:45.365Z,11.6
2018-04-26T09:13:44.582Z,11.6
2018-04-26T09:14:44.035Z,11.6
2018-04-26T09:15:43.242Z,11.5
2018-04-26T09:16:42.061Z,11.5
2018-04-26T09:17:41.064Z,11.5
2018-04-26T09:18:40.270Z,11.5
2018-04-26T09:20:39.102Z,11.4
2018-04-26T09:21:37.911Z,11.4
2018-04-26T09:22:37.140Z,11.4
2018-04-26T09:23:36.469Z,11.3
2018-04-26T09:24:35.596Z,11.2
2018-04-26T09:25:34.711Z,11.1
2018-04-26T09:26:33.924Z,11.1
2018-04-26T09:27:33.135Z,11
2018-04-26T09:28:32.476Z,11
2018-04-26T09:29:31.798Z,10.9
2018-04-26T09:30:30.730Z,11
2018-04-26T09:31:29.947Z,11.1
2018-04-26T09:32:29.050Z,11.1
2018-04-26T09:33:28.485Z,11.2
2018-04-26T09:34:27.819Z,11.3
2018-04-26T09:35:26.636Z,11.3
2018-04-26T09:36:25.853Z,11.3
2018-04-26T09:37:25.181Z,11.4
2018-04-26T09:38:24.291Z,11.5
2018-04-26T09:39:23.632Z,11.5
2018-04-26T09:40:22.738Z,11.6
2018-04-26T09:41:22.168Z,11.6
2018-04-26T09:41:52.291Z,11.6
2018-04-26T09:42:22.931Z,11.7
2018-04-26T09:43:20.173Z,11.7
2018-04-26T09:44:19.279Z,11.7
2018-04-26T09:45:18.278Z,11.7
2018-04-26T09:46:18.000Z,11.6
2018-04-26T09:47:16.816Z,11.5
2018-04-26T09:48:16.136Z,11.3
2018-04-26T09:49:15.239Z,11.3
2018-04-26T09:50:14.458Z,11.3
2018-04-26T09:51:13.684Z,11.3
2018-04-26T09:52:13.011Z,11.3
2018-04-26T09:52:43.145Z,11.3
2018-04-26T09:53:13.562Z,11.3
2018-04-26T09:54:11.373Z,11.3
2018-04-26T09:55:10.691Z,11.4
2018-04-26T09:56:09.801Z,11.5
2018-04-26T09:57:09.123Z,11.6
2018-04-26T09:59:07.224Z,11.7
2018-04-26T10:00:06.442Z,11.8
2018-04-26T10:01:05.547Z,11.9
2018-04-26T10:02:04.655Z,11.9
2018-04-26T10:03:03.991Z,12
2018-04-26T10:04:03.215Z,12.2
2018-04-26T10:05:02.561Z,12.2
2018-04-26T10:06:01.380Z,12.2
2018-04-26T10:07:00.600Z,12.2
2018-04-26T10:08:00.050Z,12.1
2018-04-26T10:08:59.378Z,12.2
2018-04-26T10:09:58.189Z,12.3
2018-04-26T10:10:57.403Z,12.4
2018-04-26T10:11:56.848Z,12.3
2018-04-26T10:13:55.173Z,12.3
2018-04-26T10:14:54.501Z,12.3
2018-04-26T10:15:53.317Z,12.4
2018-04-26T10:16:52.867Z,12.5
2018-04-26T10:17:52.060Z,12.5
2018-04-26T10:18:50.778Z,12.5
2018-04-26T10:19:50.099Z,12.4
2018-04-26T10:20:49.396Z,12
2018-04-26T10:21:48.721Z,11.6
2018-04-26T10:22:48.050Z,11.5
2018-04-26T10:23:46.879Z,11.3
2018-04-26T10:24:46.099Z,11.3
2018-04-26T10:25:45.211Z,11.2
2018-04-26T10:26:46.512Z,11.1
2018-04-26T10:27:43.718Z,11
2018-04-26T10:28:42.831Z,11.1
2018-04-26T10:29:42.047Z,11.1
2018-04-26T10:30:41.485Z,11.1
2018-04-26T10:31:40.806Z,11
2018-04-26T10:32:39.625Z,11
2018-04-26T10:33:38.840Z,11.1
2018-04-26T10:34:38.169Z,11.2
2018-04-26T10:35:37.429Z,11.2
2018-04-26T10:36:36.858Z,11.3
2018-04-26T10:37:35.568Z,11.2
2018-04-26T10:38:34.675Z,11.3
2018-04-26T10:39:34.306Z,11.3
2018-04-26T10:40:33.639Z,11.4
2018-04-26T10:41:32.246Z,11.5
2018-04-26T10:42:31.675Z,11.6
2018-04-26T10:43:30.892Z,11.6
2018-04-26T10:44:30.313Z,11.6
2018-04-26T10:45:28.925Z,11.7
2018-04-26T10:46:28.798Z,11.9
2018-04-26T10:47:27.627Z,12
2018-04-26T10:48:26.743Z,12.1
2018-04-26T10:49:26.074Z,12.3
2018-04-26T10:50:25.189Z,12.3
2018-04-26T10:51:24.626Z,12.3
2018-04-26T10:52:23.952Z,12.2
2018-04-26T10:53:22.453Z,12.3
2018-04-26T10:54:22.068Z,12.4
2018-04-26T10:55:21.397Z,12.5
2018-04-26T10:56:20.613Z,12.5
2018-04-26T10:57:19.543Z,12.6
2018-04-26T10:58:18.864Z,12.8
2018-04-26T10:59:18.084Z,12.7
2018-04-26T11:00:17.417Z,12.8
2018-04-26T11:01:16.121Z,12.9
2018-04-26T11:02:15.436Z,13.2
2018-04-26T11:03:14.551Z,13.4
2018-04-26T11:04:13.994Z,13.5
2018-04-26T11:05:13.217Z,13.5
2018-04-26T11:06:12.432Z,13.5
2018-04-26T11:07:11.658Z,13.3
2018-04-26T11:08:11.103Z,13.2
2018-04-26T11:09:10.079Z,13
2018-04-26T11:10:09.041Z,13
2018-04-26T11:11:08.479Z,12.9
2018-04-26T11:12:07.922Z,12.9
2018-04-26T11:13:06.742Z,12.7
2018-04-26T11:14:06.188Z,12.2
2018-04-26T11:15:05.187Z,12.2
2018-04-26T11:16:04.402Z,11.9
2018-04-26T11:17:03.726Z,11.7
2018-04-26T11:18:02.946Z,11.5
2018-04-26T11:19:01.947Z,11.4
2018-04-26T11:21:59.946Z,11
2018-04-26T11:22:59.163Z,10.9
2018-04-26T11:23:58.265Z,10.7
2018-04-26T11:24:57.699Z,10.6
2018-04-26T11:25:56.911Z,10.4
2018-04-26T11:26:55.836Z,10.3
2018-04-26T11:27:55.054Z,10.2
2018-04-26T11:28:54.491Z,10
2018-04-26T11:29:53.333Z,10
2018-04-26T11:30:52.628Z,9.9
2018-04-26T11:31:51.929Z,9.7
2018-04-26T11:34:49.342Z,9.5
2018-04-26T11:35:48.675Z,9.4
2018-04-26T11:36:47.902Z,9.5
2018-04-26T11:37:46.897Z,9.5
2018-04-26T11:38:46.208Z,9.5
2018-04-26T11:39:45.313Z,9.7
2018-04-26T11:40:44.628Z,9.8
2018-04-26T11:41:44.025Z,9.9
2018-04-26T11:42:42.947Z,10
2018-04-26T11:43:42.168Z,10.1
2018-04-26T11:44:41.565Z,10.1
2018-04-26T11:45:40.284Z,10.1
2018-04-26T11:46:39.432Z,10.2
2018-04-26T11:47:38.553Z,10.3
2018-04-26T11:48:37.871Z,10.4
2018-04-26T11:49:37.094Z,10.3
2018-04-26T11:50:36.529Z,10.4
2018-04-26T11:51:35.853Z,10.5
2018-04-26T11:52:34.707Z,10.6
2018-04-26T11:53:33.868Z,10.7
2018-04-26T11:54:32.984Z,10.8
2018-04-26T11:55:32.304Z,11
2018-04-26T11:56:31.630Z,11.1
2018-04-26T11:57:30.455Z,11.1
2018-04-26T11:58:29.676Z,10.9
2018-04-26T11:59:29.015Z,11
2018-04-26T12:01:27.335Z,11
2018-04-26T12:02:27.110Z,11
2018-04-26T12:03:25.322Z,11.1
2018-04-26T12:04:24.747Z,11
2018-04-26T12:05:24.189Z,11
2018-04-26T12:06:23.120Z,11
2018-04-26T12:07:22.559Z,11
2018-04-26T12:08:21.374Z,11.1
2018-04-26T12:09:20.702Z,11.2
2018-04-26T12:10:19.918Z,11.3
2018-04-26T12:11:19.224Z,11.4
2018-04-26T12:12:18.441Z,11.4
2018-04-26T12:13:18.309Z,11.6
2018-04-26T12:14:16.189Z,11.9
2018-04-26T12:15:16.013Z,12.1
2018-04-26T12:15:46.655Z,12.1
2018-04-26T12:16:17.327Z,12.3
2018-04-26T12:17:14.135Z,12
2018-04-26T12:19:12.947Z,11.6
2018-04-26T12:20:11.677Z,11.9
2018-04-26T12:21:11.110Z,12
2018-04-26T12:22:10.324Z,12.2
2018-04-26T12:23:09.432Z,12.1
2018-04-26T12:24:09.229Z,12.2
2018-04-26T12:25:07.838Z,11.9
2018-04-26T12:26:07.170Z,12
2018-04-26T12:27:05.888Z,12.3
2018-04-26T12:28:05.219Z,12.5
2018-04-26T12:29:04.440Z,12.5
2018-04-26T12:30:03.554Z,12.7
2018-04-26T12:31:02.665Z,12.5
2018-04-26T12:32:01.776Z,12.4
2018-04-26T12:33:01.388Z,12.4
2018-04-26T12:34:00.735Z,12.4
2018-04-26T12:34:59.950Z,12.1
2018-04-26T12:35:59.057Z,12.2
2018-04-26T12:36:58.378Z,12.2
2018-04-26T12:37:57.486Z,12.3
2018-04-26T12:38:56.863Z,12.2
2018-04-26T12:39:55.693Z,12.4
2018-04-26T12:40:55.130Z,12.6
2018-04-26T12:41:54.462Z,12.8
2018-04-26T12:42:53.286Z,13.1
2018-04-26T12:43:52.500Z,13.3
2018-04-26T12:44:51.718Z,13.3
2018-04-26T12:45:51.051Z,13.3
2018-04-26T12:46:50.380Z,13.5
2018-04-26T12:47:49.591Z,13.5
2018-04-26T12:48:48.806Z,13.4
2018-04-26T12:49:48.121Z,13.4
2018-04-26T12:50:47.343Z,13.3
2018-04-26T12:51:46.456Z,13.3
2018-04-26T12:52:45.896Z,13.4
2018-04-26T12:53:45.018Z,13.4
2018-04-26T12:54:44.127Z,13.4
2018-04-26T12:55:14.754Z,13.4
2018-04-26T12:55:45.467Z,13.3
2018-04-26T12:56:15.704Z,13.3
2018-04-26T12:57:42.107Z,13.5
2018-04-26T12:58:40.831Z,13.5
2018-04-26T12:59:39.936Z,13.5
2018-04-26T13:00:39.865Z,13.6
2018-04-26T13:01:38.471Z,13.2
2018-04-26T13:02:37.695Z,13.5
2018-04-26T13:03:36.909Z,13.3
2018-04-26T13:04:36.750Z,13.5
2018-04-26T13:05:35.459Z,13.6
2018-04-26T13:06:05.983Z,13.6
2018-04-26T13:06:36.511Z,13.5
2018-04-26T13:07:06.930Z,13.5
2018-04-26T13:08:33.544Z,13.4
2018-04-26T13:09:03.464Z,13.4
2018-04-26T13:09:34.002Z,13.5
2018-04-26T13:10:04.637Z,13.5
2018-04-26T13:11:31.036Z,13.4
2018-04-26T13:12:30.141Z,13.4
2018-04-26T13:13:29.239Z,13.7
2018-04-26T13:14:28.740Z,13.6
2018-04-26T13:15:27.839Z,13.8
2018-04-26T13:16:27.049Z,14.1
2018-04-26T13:17:26.938Z,13.9
2018-04-26T13:18:25.887Z,14.1
2018-04-26T13:19:25.104Z,14
2018-04-26T13:20:24.439Z,13.5
2018-04-26T13:21:24.299Z,13.4
2018-04-26T13:22:23.061Z,13.3
2018-04-26T13:23:22.060Z,13.1
2018-04-26T13:24:21.509Z,13
2018-04-26T13:25:20.844Z,13
2018-04-26T13:26:19.578Z,13